Time;durP1;ratioP1;P1;durP2;ratioP2;P2;SDS_P1;SDS_P2;PMS_P1;PMS_P2;Temp;Humidity;BMP_temperature;BMP_pressure;BME280_temperature;BME280_humidity;BME280_pressure;Samples;Min_cycle;Max_cycle;Signal;HPM_P1;HPM_P2
2021/07/20 00:01:41;;;;;;;18.95;12.30;;;18.40;77.30;;;;;;5091914;28;20502;-68
2021/07/20 00:04:06;;;;;;;16.02;10.68;;;18.30;76.80;;;;;;5091686;28;20032;-67
2021/07/20 00:06:32;;;;;;;17.02;11.20;;;18.30;77.00;;;;;;5088388;28;20032;-71
2021/07/20 00:08:57;;;;;;;17.17;10.90;;;18.20;77.20;;;;;;5090394;28;20027;-69
2021/07/20 00:11:24;;;;;;;16.38;10.27;;;18.20;77.30;;;;;;5095472;28;20480;-69
2021/07/20 00:13:50;;;;;;;16.33;10.68;;;18.10;77.30;;;;;;5091532;28;20481;-68
2021/07/20 00:16:15;;;;;;;19.42;10.73;;;18.10;77.50;;;;;;5090378;28;20024;-69
2021/07/20 00:18:41;;;;;;;14.27;10.57;;;18.00;77.60;;;;;;5090914;28;20118;-73
2021/07/20 00:21:09;;;;;;;19.00;10.70;;;18.00;77.70;;;;;;5090999;28;20020;-72
2021/07/20 00:23:35;;;;;;;17.90;10.90;;;18.00;77.80;;;;;;5091072;28;20058;-68
2021/07/20 00:26:01;;;;;;;19.00;10.63;;;17.90;78.00;;;;;;5090037;28;20111;-68
2021/07/20 00:28:27;;;;;;;15.75;10.15;;;17.90;78.10;;;;;;5091250;28;20099;-67
2021/07/20 00:30:53;;;;;;;18.92;10.63;;;17.90;78.30;;;;;;5073124;28;20031;-67
2021/07/20 00:33:19;;;;;;;15.90;10.20;;;17.90;78.20;;;;;;5091303;28;20634;-68
2021/07/20 00:35:46;;;;;;;14.73;9.65;;;17.90;78.20;;;;;;5089808;28;20095;-67
2021/07/20 00:38:15;;;;;;;14.70;9.50;;;17.80;78.20;;;;;;5091075;28;20676;-68
2021/07/20 00:40:40;;;;;;;16.67;10.00;;;17.80;78.30;;;;;;5072334;28;20020;-68
2021/07/20 00:43:06;;;;;;;13.20;8.57;;;17.70;78.30;;;;;;5090995;28;20036;-68
2021/07/20 00:45:33;;;;;;;16.13;9.20;;;17.70;78.40;;;;;;5090012;28;20032;-69
2021/07/20 00:47:59;;;;;;;17.48;9.40;;;17.70;78.70;;;;;;5091014;28;20029;-67
2021/07/20 00:50:32;;;;;;;17.08;10.02;;;17.70;78.80;;;;;;5090786;28;20028;-69
2021/07/20 00:52:57;;;;;;;17.63;10.27;;;17.60;78.80;;;;;;5090900;28;20074;-68
2021/07/20 00:55:23;;;;;;;15.52;9.85;;;17.60;78.80;;;;;;5089550;28;20024;-71
2021/07/20 00:57:52;;;;;;;18.67;9.10;;;17.50;78.80;;;;;;5090760;28;20020;-68
2021/07/20 01:00:20;;;;;;;16.50;9.65;;;17.50;79.00;;;;;;5072074;28;20472;-68
2021/07/20 01:02:47;;;;;;;14.35;9.30;;;17.40;79.00;;;;;;5090672;28;20499;-68
2021/07/20 01:05:22;;;;;;;15.10;9.68;;;17.30;79.50;;;;;;5089581;28;20111;-67
2021/07/20 01:07:48;;;;;;;16.83;8.90;;;17.30;79.30;;;;;;5090647;28;20036;-68
2021/07/20 01:10:15;;;;;;;12.95;8.57;;;17.30;79.20;;;;;;5090400;28;20466;-68
2021/07/20 01:12:45;;;;;;;15.73;9.63;;;17.20;79.30;;;;;;5090394;28;20097;-72
2021/07/20 01:15:12;;;;;;;15.82;9.15;;;17.20;79.60;;;;;;5089477;28;20016;-72
2021/07/20 01:17:39;;;;;;;14.82;8.05;;;17.10;79.70;;;;;;5086741;28;20043;-67
2021/07/20 01:20:22;;;;;;;14.98;9.35;;;17.10;79.90;;;;;;5078367;28;20021;-70
2021/07/20 01:23:11;;;;;;;18.13;9.05;;;17.10;80.00;;;;;;5083676;28;20031;-69
2021/07/20 01:25:38;;;;;;;16.60;8.88;;;17.00;79.80;;;;;;5089076;28;20028;-72
2021/07/20 01:28:07;;;;;;;14.27;8.18;;;17.00;79.80;;;;;;5090443;28;20028;-68
2021/07/20 01:30:36;;;;;;;12.18;8.40;;;17.00;80.00;;;;;;5090587;28;20487;-72
2021/07/20 01:33:03;;;;;;;14.20;8.50;;;16.90;80.00;;;;;;5090578;28;20471;-69
2021/07/20 01:35:30;;;;;;;12.73;8.43;;;16.90;80.00;;;;;;5089264;28;20023;-67
2021/07/20 01:37:59;;;;;;;14.50;8.90;;;16.90;80.20;;;;;;5090358;28;20476;-69
2021/07/20 01:40:26;;;;;;;15.82;9.02;;;16.80;80.30;;;;;;5089842;28;20085;-67
2021/07/20 01:42:53;;;;;;;14.77;8.27;;;16.80;80.30;;;;;;5090242;28;20074;-68
2021/07/20 01:45:18;;;;;;;15.15;8.75;;;16.80;80.40;;;;;;5089295;28;20028;-68
2021/07/20 01:47:46;;;;;;;14.52;9.15;;;16.70;80.50;;;;;;5090298;28;20108;-67
2021/07/20 01:50:14;;;;;;;13.93;7.97;;;16.70;80.70;;;;;;5090191;28;20472;-69
2021/07/20 01:52:41;;;;;;;16.08;9.13;;;16.70;80.70;;;;;;5090265;28;20036;-68
2021/07/20 01:55:07;;;;;;;13.60;8.95;;;16.70;80.70;;;;;;5089099;28;20020;-67
2021/07/20 01:57:33;;;;;;;15.93;7.90;;;16.80;80.70;;;;;;5071841;28;20035;-67
2021/07/20 01:59:59;;;;;;;13.77;8.07;;;16.70;80.70;;;;;;5090314;28;20020;-68
2021/07/20 02:02:31;;;;;;;15.93;8.50;;;16.70;80.60;;;;;;5090309;28;20095;-67
2021/07/20 02:10:25;;;;;;;12.07;8.07;;;16.60;80.90;;;;;;5088258;28;20035;-70
2021/07/20 02:12:55;;;;;;;13.45;8.38;;;16.60;81.00;;;;;;5107690;28;20028;-67
2021/07/20 02:15:21;;;;;;;15.38;8.93;;;16.60;81.10;;;;;;5113270;28;20015;-69
2021/07/20 02:17:50;;;;;;;17.23;9.18;;;16.60;81.10;;;;;;5108778;28;20024;-69
2021/07/20 02:20:19;;;;;;;15.15;8.63;;;16.60;81.10;;;;;;5093190;28;20020;-68
2021/07/20 02:22:46;;;;;;;15.80;8.52;;;16.60;81.20;;;;;;5093508;28;20028;-68
2021/07/20 02:25:12;;;;;;;15.23;8.38;;;16.50;81.30;;;;;;5092448;28;20543;-68
2021/07/20 02:27:39;;;;;;;15.00;8.15;;;16.50;81.30;;;;;;5093512;28;20039;-68
2021/07/20 02:30:10;;;;;;;14.85;8.57;;;16.50;81.30;;;;;;5093649;28;20177;-69
2021/07/20 02:32:36;;;;;;;16.00;8.90;;;16.50;81.40;;;;;;5093419;28;20088;-69
2021/07/20 02:35:05;;;;;;;12.90;8.27;;;16.50;81.40;;;;;;5092257;28;20107;-68
2021/07/20 02:37:33;;;;;;;15.85;8.68;;;16.50;81.50;;;;;;5093323;28;20399;-68
2021/07/20 02:40:00;;;;;;;14.68;8.02;;;16.40;81.40;;;;;;5093128;28;20027;-68
2021/07/20 02:42:26;;;;;;;16.00;9.13;;;16.40;81.50;;;;;;5093052;28;20028;-68
2021/07/20 02:44:53;;;;;;;13.02;7.82;;;16.40;81.60;;;;;;5092155;28;20047;-68
2021/07/20 02:47:19;;;;;;;12.23;7.85;;;16.30;81.70;;;;;;5093132;28;20161;-68
2021/07/20 02:49:45;;;;;;;15.20;8.20;;;16.30;81.80;;;;;;5093039;28;20506;-69
2021/07/20 02:52:11;;;;;;;17.60;8.45;;;16.30;81.90;;;;;;5093204;28;20028;-68
2021/07/20 02:54:38;;;;;;;15.20;8.27;;;16.30;81.90;;;;;;5091873;28;20024;-69
2021/07/20 02:57:06;;;;;;;13.43;8.15;;;16.30;81.80;;;;;;5092955;28;20024;-70
2021/07/20 02:59:34;;;;;;;14.52;8.48;;;16.20;81.90;;;;;;5093203;28;20036;-68
2021/07/20 03:02:02;;;;;;;14.82;8.75;;;16.10;81.90;;;;;;5093215;28;20099;-69
2021/07/20 03:04:27;;;;;;;14.10;8.63;;;16.10;82.10;;;;;;5092809;28;20024;-68
2021/07/20 03:06:57;;;;;;;11.43;7.85;;;16.10;82.20;;;;;;5092232;28;20417;-68
2021/07/20 03:09:25;;;;;;;13.55;8.75;;;16.10;82.40;;;;;;5089029;28;20057;-69
2021/07/20 03:11:55;;;;;;;13.55;8.52;;;16.10;82.40;;;;;;5097841;28;20028;-69
2021/07/20 03:14:23;;;;;;;14.25;7.65;;;16.10;82.40;;;;;;5113489;28;20429;-69
2021/07/20 03:16:50;;;;;;;13.40;8.63;;;16.00;82.30;;;;;;5111828;28;20460;-69
2021/07/20 03:19:19;;;;;;;14.95;8.57;;;16.00;82.50;;;;;;5094987;28;20020;-69
2021/07/20 03:21:49;;;;;;;24.77;9.43;;;15.90;82.60;;;;;;5092719;28;20016;-69
2021/07/20 03:24:15;;;;;;;12.75;7.90;;;15.90;82.70;;;;;;5092022;28;20024;-69
2021/07/20 03:26:41;;;;;;;14.68;8.00;;;15.90;82.70;;;;;;5091104;28;20032;-68
2021/07/20 03:29:09;;;;;;;14.10;8.00;;;15.90;82.80;;;;;;5092645;28;20055;-68
2021/07/20 03:31:36;;;;;;;12.48;7.47;;;15.90;82.90;;;;;;5092717;28;20016;-68
2021/07/20 03:34:04;;;;;;;14.63;7.80;;;15.80;82.80;;;;;;5092472;28;20437;-68
2021/07/20 03:36:30;;;;;;;12.45;7.93;;;15.80;82.80;;;;;;5091341;28;20077;-68
2021/07/20 03:38:56;;;;;;;10.30;7.47;;;15.70;82.90;;;;;;5092305;28;20078;-68
2021/07/20 03:41:25;;;;;;;14.93;8.20;;;15.70;83.10;;;;;;5091927;28;20528;-68
2021/07/20 03:43:52;;;;;;;13.43;8.77;;;15.70;83.30;;;;;;5092389;28;20020;-68
2021/07/20 03:46:18;;;;;;;13.00;8.80;;;15.70;83.20;;;;;;5073093;28;20024;-68
2021/07/20 03:48:44;;;;;;;12.50;8.00;;;15.70;83.30;;;;;;5092268;28;20026;-68
2021/07/20 03:51:11;;;;;;;13.50;7.97;;;15.70;83.20;;;;;;5092182;28;20507;-68
2021/07/20 03:53:37;;;;;;;12.95;8.13;;;15.70;83.30;;;;;;5092024;28;20500;-68
2021/07/20 03:56:05;;;;;;;14.65;7.60;;;15.70;83.30;;;;;;5090787;28;20030;-68
2021/07/20 03:58:34;;;;;;;16.02;8.02;;;15.70;83.40;;;;;;5091997;28;20044;-68
2021/07/20 04:01:02;;;;;;;13.73;8.40;;;15.60;83.30;;;;;;5092037;28;20479;-68
2021/07/20 04:03:30;;;;;;;13.02;8.05;;;15.60;83.40;;;;;;5091837;28;20024;-69
2021/07/20 04:06:00;;;;;;;13.05;7.95;;;15.50;83.50;;;;;;5090789;28;20052;-68
2021/07/20 04:08:26;;;;;;;14.65;8.18;;;15.50;83.90;;;;;;5087666;28;20111;-69
2021/07/20 04:10:53;;;;;;;13.98;8.13;;;15.60;84.00;;;;;;5099362;28;20052;-68
2021/07/20 04:13:20;;;;;;;12.63;7.70;;;15.50;84.00;;;;;;5109728;28;20108;-68
2021/07/20 04:15:49;;;;;;;14.82;8.60;;;15.50;84.00;;;;;;5111184;28;20023;-68
2021/07/20 04:18:16;;;;;;;15.38;8.65;;;15.50;84.20;;;;;;5102758;28;20430;-68
2021/07/20 04:20:45;;;;;;;13.80;9.07;;;15.50;84.20;;;;;;5090996;28;20082;-68
2021/07/20 04:23:13;;;;;;;14.10;8.32;;;15.60;84.40;;;;;;5091442;28;20069;-68
2021/07/20 04:25:44;;;;;;;15.35;8.23;;;15.60;84.40;;;;;;5090224;28;20028;-68
2021/07/20 04:28:11;;;;;;;15.38;7.88;;;15.60;85.00;;;;;;5091365;28;20077;-68
2021/07/20 04:30:39;;;;;;;12.93;9.02;;;15.60;84.50;;;;;;5091625;28;20365;-69
2021/07/20 04:33:05;;;;;;;15.15;8.73;;;15.60;84.50;;;;;;5091891;28;20031;-68
2021/07/20 04:35:32;;;;;;;11.88;7.97;;;15.60;84.60;;;;;;5089544;28;20525;-68
2021/07/20 04:37:59;;;;;;;17.23;8.93;;;15.60;84.70;;;;;;5091471;28;20020;-69
2021/07/20 04:40:25;;;;;;;13.68;8.23;;;15.60;84.80;;;;;;5091205;28;20099;-68
2021/07/20 04:42:51;;;;;;;19.02;9.45;;;15.70;84.90;;;;;;5091485;28;20111;-68
2021/07/20 04:45:17;;;;;;;12.82;8.20;;;15.70;84.90;;;;;;5090421;28;20454;-68
2021/07/20 04:47:44;;;;;;;15.77;8.68;;;15.70;84.90;;;;;;5091155;28;20030;-68
2021/07/20 04:50:13;;;;;;;15.00;8.27;;;15.80;85.10;;;;;;5091392;28;20122;-68
2021/07/20 04:52:40;;;;;;;11.77;7.70;;;15.80;85.20;;;;;;5091216;28;20494;-69
2021/07/20 04:55:07;;;;;;;13.80;7.75;;;15.80;85.20;;;;;;5090059;28;20468;-68
2021/07/20 04:57:35;;;;;;;14.75;7.75;;;15.90;85.30;;;;;;5091020;28;20020;-68
2021/07/20 05:00:03;;;;;;;16.50;8.55;;;15.90;85.20;;;;;;5091308;28;20024;-68
2021/07/20 05:02:30;;;;;;;14.02;8.48;;;16.00;85.30;;;;;;5090940;28;20059;-68
2021/07/20 05:04:57;;;;;;;13.93;8.20;;;16.00;85.30;;;;;;5090130;28;20472;-68
2021/07/20 05:07:25;;;;;;;13.52;7.97;;;16.10;85.80;;;;;;5091050;28;20028;-69
2021/07/20 05:09:52;;;;;;;16.63;8.00;;;16.10;85.30;;;;;;5094669;22;20048;-67
2021/07/20 05:12:18;;;;;;;12.50;7.95;;;16.20;85.30;;;;;;5070937;28;20038;-68
2021/07/20 05:14:44;;;;;;;11.90;7.97;;;16.20;85.20;;;;;;5092048;28;20022;-67
2021/07/20 05:17:10;;;;;;;14.00;8.23;;;16.30;85.30;;;;;;5111033;28;20106;-67
2021/07/20 05:19:37;;;;;;;10.50;6.70;;;16.30;85.20;;;;;;5090869;28;20016;-67
2021/07/20 05:22:03;;;;;;;13.30;8.32;;;16.30;85.30;;;;;;5090685;28;20073;-67
2021/07/20 05:24:32;;;;;;;11.25;7.72;;;16.40;85.20;;;;;;5090258;28;20475;-67
2021/07/20 05:27:00;;;;;;;16.25;8.27;;;16.40;85.20;;;;;;5087744;28;20089;-68
2021/07/20 05:29:26;;;;;;;14.85;8.40;;;16.40;85.30;;;;;;5090620;28;20043;-67
2021/07/20 05:31:54;;;;;;;10.63;7.70;;;16.40;85.30;;;;;;5090759;28;20017;-67
2021/07/20 05:34:20;;;;;;;14.20;8.35;;;16.50;85.20;;;;;;5090713;28;20464;-67
2021/07/20 05:36:46;;;;;;;13.88;8.38;;;16.50;85.30;;;;;;5071640;28;20028;-68
2021/07/20 05:39:12;;;;;;;12.05;7.88;;;16.60;85.30;;;;;;5090539;28;20024;-68
2021/07/20 05:41:42;;;;;;;18.00;8.10;;;16.60;85.20;;;;;;5090510;28;20034;-67
2021/07/20 05:44:14;;;;;;;11.90;7.53;;;16.60;85.10;;;;;;5090525;28;20034;-68
2021/07/20 05:46:41;;;;;;;13.93;7.93;;;16.60;85.10;;;;;;5091832;28;20035;-68
2021/07/20 05:49:09;;;;;;;12.82;8.18;;;16.60;85.10;;;;;;5094635;28;20040;-67
2021/07/20 05:51:37;;;;;;;14.35;8.10;;;16.60;85.10;;;;;;5094761;28;20379;-67
2021/07/20 05:54:04;;;;;;;12.52;7.80;;;16.70;85.20;;;;;;5094541;28;20088;-68
2021/07/20 05:56:33;;;;;;;12.30;7.63;;;16.80;85.30;;;;;;5093116;28;20020;-67
2021/07/20 05:58:59;;;;;;;13.38;7.85;;;16.80;85.20;;;;;;5094366;28;20024;-67
2021/07/20 06:01:27;;;;;;;12.05;7.47;;;16.90;85.00;;;;;;5094661;28;20024;-67
2021/07/20 06:03:56;;;;;;;14.98;7.25;;;16.90;84.90;;;;;;5094539;28;20028;-67
2021/07/20 06:06:28;;;;;;;12.48;7.53;;;16.90;84.80;;;;;;5075110;28;20070;-68
2021/07/20 06:09:02;;;;;;;13.60;7.95;;;16.90;84.70;;;;;;5090258;28;20111;-68
2021/07/20 06:11:29;;;;;;;12.40;7.55;;;17.00;84.90;;;;;;5074564;28;20032;-67
2021/07/20 06:13:56;;;;;;;15.05;8.13;;;17.00;85.40;;;;;;5094349;28;20115;-68
2021/07/20 06:16:23;;;;;;;17.85;8.20;;;17.00;84.90;;;;;;5093330;28;20016;-67
2021/07/20 06:18:50;;;;;;;14.90;7.93;;;17.10;84.80;;;;;;5092824;28;20026;-68
2021/07/20 06:21:20;;;;;;;12.02;8.07;;;17.10;84.80;;;;;;5093748;28;20028;-67
2021/07/20 06:23:48;;;;;;;13.55;8.07;;;17.10;84.80;;;;;;5091569;28;20024;-67
2021/07/20 06:26:19;;;;;;;13.98;7.80;;;17.20;84.90;;;;;;5092542;28;20032;-68
2021/07/20 06:28:45;;;;;;;13.02;7.70;;;17.20;84.90;;;;;;5075617;28;20095;-67
2021/07/20 06:31:15;;;;;;;15.85;8.10;;;17.30;84.80;;;;;;5093945;28;20100;-68
2021/07/20 06:33:40;;;;;;;14.60;8.25;;;17.30;84.80;;;;;;5075659;28;20027;-67
2021/07/20 06:36:06;;;;;;;14.70;8.15;;;17.30;84.70;;;;;;5074744;28;20032;-68
2021/07/20 06:38:32;;;;;;;13.25;8.07;;;17.30;84.70;;;;;;5093870;28;20107;-68
2021/07/20 06:40:59;;;;;;;15.00;7.47;;;17.40;84.80;;;;;;5093274;28;20031;-67
2021/07/20 06:43:25;;;;;;;14.20;8.45;;;17.50;84.80;;;;;;5093673;28;20028;-67
2021/07/20 06:45:52;;;;;;;12.77;8.20;;;17.50;84.50;;;;;;5092833;28;20027;-67
2021/07/20 06:48:20;;;;;;;12.70;7.43;;;17.50;84.60;;;;;;5075890;28;20028;-68
2021/07/20 06:50:48;;;;;;;16.10;8.00;;;17.60;84.80;;;;;;5093880;28;20024;-67
2021/07/20 06:53:14;;;;;;;16.75;8.10;;;17.70;84.50;;;;;;5092985;28;20024;-66
2021/07/20 06:55:52;;;;;;;10.48;7.57;;;17.80;84.10;;;;;;5092364;28;20059;-67
2021/07/20 06:58:19;;;;;;;13.45;7.38;;;17.70;84.20;;;;;;5092114;28;20020;-68
2021/07/20 07:00:52;;;;;;;13.10;7.85;;;17.90;84.40;;;;;;5076862;28;20388;-67
2021/07/20 07:03:24;;;;;;;14.05;7.55;;;18.00;84.40;;;;;;5093112;28;20028;-66
2021/07/20 07:05:53;;;;;;;16.20;8.23;;;18.10;84.10;;;;;;5092397;28;20028;-68
2021/07/20 07:08:19;;;;;;;13.90;7.93;;;18.20;83.60;;;;;;5075068;28;20483;-66
2021/07/20 07:10:46;;;;;;;15.88;7.55;;;18.30;83.10;;;;;;5092941;28;20028;-67
2021/07/20 07:13:12;;;;;;;14.05;7.43;;;18.40;83.00;;;;;;5093128;28;20028;-67
2021/07/20 07:15:39;;;;;;;13.35;7.50;;;18.50;82.80;;;;;;5091957;28;20043;-68
2021/07/20 07:18:05;;;;;;;13.75;7.20;;;18.70;82.90;;;;;;5092956;28;20040;-67
2021/07/20 07:20:32;;;;;;;11.13;6.80;;;19.00;82.80;;;;;;5092502;28;20097;-67
2021/07/20 07:23:00;;;;;;;14.80;7.78;;;19.20;82.20;;;;;;5088884;28;20024;-66
2021/07/20 07:25:26;;;;;;;15.38;6.93;;;19.50;81.10;;;;;;5090123;28;20527;-68
2021/07/20 07:27:53;;;;;;;12.80;7.35;;;19.50;80.20;;;;;;5093015;28;20042;-68
2021/07/20 07:30:19;;;;;;;11.90;7.53;;;19.60;79.70;;;;;;5074945;28;20383;-66
2021/07/20 07:32:46;;;;;;;12.90;7.18;;;19.70;80.20;;;;;;5093047;28;20028;-66
2021/07/20 07:35:13;;;;;;;9.82;6.38;;;19.90;80.30;;;;;;5091767;28;20717;-67
2021/07/20 07:37:39;;;;;;;12.63;7.15;;;20.20;80.20;;;;;;5092795;28;20047;-70
2021/07/20 07:40:08;;;;;;;11.65;6.75;;;20.40;79.60;;;;;;5092587;28;20380;-68
2021/07/20 07:42:39;;;;;;;9.30;7.22;;;20.70;79.20;;;;;;5092440;28;20111;-67
2021/07/20 07:45:07;;;;;;;12.35;7.45;;;21.10;78.60;;;;;;5091625;28;20032;-67
2021/07/20 07:47:33;;;;;;;11.52;7.00;;;21.50;78.10;;;;;;5092700;28;20042;-67
2021/07/20 07:49:59;;;;;;;10.40;7.05;;;21.80;76.60;;;;;;5092564;28;20020;-69
2021/07/20 07:52:25;;;;;;;14.82;6.88;;;21.90;75.10;;;;;;5092562;28;20111;-70
2021/07/20 07:54:52;;;;;;;13.80;7.20;;;22.10;74.90;;;;;;5091477;28;20055;-68
2021/07/20 07:57:19;;;;;;;16.40;7.90;;;22.30;74.20;;;;;;5073793;28;20028;-67
2021/07/20 07:59:48;;;;;;;11.10;7.13;;;22.40;72.50;;;;;;5092559;28;20027;-68
2021/07/20 08:02:21;;;;;;;13.70;7.00;;;22.40;72.40;;;;;;5092543;28;20071;-68
2021/07/20 08:04:48;;;;;;;11.52;6.68;;;22.60;72.50;;;;;;5073104;28;20524;-67
2021/07/20 08:07:16;;;;;;;10.68;7.10;;;23.00;72.40;;;;;;5092157;28;20020;-67
2021/07/20 08:09:43;;;;;;;13.30;6.82;;;23.50;70.50;;;;;;5091720;28;20028;-67
2021/07/20 08:12:09;;;;;;;11.70;6.80;;;23.70;69.40;;;;;;5073810;28;20375;-67
2021/07/20 08:14:35;;;;;;;9.95;6.28;;;24.10;68.50;;;;;;5091193;28;20027;-67
2021/07/20 08:17:02;;;;;;;11.10;6.95;;;24.30;67.60;;;;;;5091900;28;20373;-67
2021/07/20 08:19:31;;;;;;;10.55;7.03;;;24.70;67.20;;;;;;5091637;28;20031;-68
2021/07/20 08:22:02;;;;;;;11.75;6.60;;;25.10;66.20;;;;;;5092048;28;20067;-68
2021/07/20 08:24:33;;;;;;;10.47;7.13;;;25.50;64.60;;;;;;5068754;28;20024;-71
2021/07/20 08:27:05;;;;;;;12.35;6.30;;;25.80;64.70;;;;;;5073251;28;20032;-68
2021/07/20 08:29:37;;;;;;;10.50;6.63;;;26.10;63.70;;;;;;5092001;28;20024;-68
2021/07/20 08:32:08;;;;;;;9.65;6.18;;;26.20;62.50;;;;;;5091898;28;20024;-67
2021/07/20 08:34:38;;;;;;;10.37;6.60;;;26.40;62.70;;;;;;5090991;28;20387;-71
2021/07/20 08:37:04;;;;;;;13.55;6.50;;;26.80;62.30;;;;;;5091618;28;20472;-67
2021/07/20 08:39:31;;;;;;;16.08;6.05;;;27.10;61.00;;;;;;5091672;28;20369;-71
2021/07/20 08:42:06;;;;;;;18.00;6.72;;;27.30;60.50;;;;;;5091255;28;20038;-67
2021/07/20 08:44:46;;;;;;;17.42;6.47;;;27.60;60.00;;;;;;5091436;28;20425;-68
2021/07/20 08:47:20;;;;;;;16.92;5.97;;;28.00;59.10;;;;;;5091567;28;20439;-71
2021/07/20 08:49:55;;;;;;;14.43;6.75;;;28.40;58.40;;;;;;5091728;28;20024;-68
2021/07/20 08:52:36;;;;;;;15.02;6.18;;;28.80;57.30;;;;;;5073199;28;20054;-71
2021/07/20 08:55:25;;;;;;;13.30;6.68;;;29.10;57.00;;;;;;5090353;28;20048;-67
2021/07/20 08:57:56;;;;;;;34.88;19.52;;;29.40;55.90;;;;;;5091218;28;20060;-68
2021/07/20 09:00:24;;;;;;;15.50;7.05;;;29.90;54.90;;;;;;5091494;28;20468;-68
2021/07/20 09:03:06;;;;;;;15.75;6.70;;;30.30;54.30;;;;;;5073409;28;20119;-68
2021/07/20 09:05:50;;;;;;;11.52;6.68;;;30.70;53.80;;;;;;5090239;28;20024;-67
2021/07/20 09:08:37;;;;;;;10.50;5.50;;;31.20;52.80;;;;;;5091157;28;20024;-67
2021/07/20 09:11:14;;;;;;;10.80;5.80;;;31.70;52.30;;;;;;5090819;28;20055;-68
2021/07/20 09:13:54;;;;;;;8.50;5.75;;;31.90;51.00;;;;;;5091332;28;20456;-68
2021/07/20 09:16:32;;;;;;;11.27;6.90;;;32.30;49.70;;;;;;5090222;28;20065;-68
2021/07/20 09:19:33;;;;;;;11.82;6.47;;;32.60;49.20;;;;;;5090973;28;20031;-68
2021/07/20 09:22:06;;;;;;;11.82;6.60;;;32.90;49.30;;;;;;5096686;28;20016;-66
2021/07/20 09:24:44;;;;;;;14.02;6.78;;;33.00;47.40;;;;;;5092754;28;20028;-65
2021/07/20 09:27:45;;;;;;;11.23;6.78;;;32.90;47.50;;;;;;5097440;28;20643;-66
2021/07/20 09:30:14;;;;;;;12.45;6.72;;;33.10;48.30;;;;;;5080463;28;20039;-65
2021/07/20 09:33:01;;;;;;;11.00;7.35;;;33.30;47.90;;;;;;5097838;28;20483;-66
2021/07/20 09:35:43;;;;;;;18.52;7.47;;;33.50;47.00;;;;;;5096662;28;20060;-65
2021/07/20 09:38:17;;;;;;;;;;;31.90;48.30;;;;;;5098156;28;20107;-65
2021/07/20 09:40:49;;;;;;;12.68;7.10;;;31.40;50.80;;;;;;5097243;28;19927;-65
2021/07/20 09:43:29;;;;;;;12.73;6.75;;;30.40;50.90;;;;;;5097704;28;20034;-65
2021/07/20 09:46:04;;;;;;;10.55;7.28;;;30.70;50.00;;;;;;5096684;28;20020;-65
2021/07/20 09:48:44;;;;;;;10.57;6.90;;;31.40;48.60;;;;;;5097687;28;20562;-65
2021/07/20 09:51:41;;;;;;;10.57;6.80;;;31.70;47.60;;;;;;5079462;28;20032;-68
2021/07/20 09:54:18;;;;;;;12.95;6.57;;;32.10;47.50;;;;;;5097461;28;20277;-66
2021/07/20 09:57:16;;;;;;;8.13;6.35;;;32.30;47.30;;;;;;5077889;28;20031;-69
2021/07/20 10:00:10;;;;;;;12.60;6.10;;;32.50;47.00;;;;;;5097561;28;20039;-69
2021/07/20 10:02:48;;;;;;;9.88;6.68;;;32.80;46.80;;;;;;5079446;28;20819;-65
2021/07/20 10:05:19;;;;;;;35.47;12.02;;;32.90;46.60;;;;;;5096603;28;20035;-65
2021/07/20 10:08:05;;;;;;;9.63;6.93;;;32.90;46.40;;;;;;5097441;28;20388;-66
2021/07/20 10:10:42;;;;;;;9.27;6.90;;;32.90;46.20;;;;;;5096971;28;20127;-66
2021/07/20 10:13:20;;;;;;;9.63;6.30;;;32.60;46.20;;;;;;5097354;28;20548;-65
2021/07/20 10:16:08;;;;;;;13.77;6.47;;;32.40;45.80;;;;;;5096500;28;20024;-65
2021/07/20 10:18:40;;;;;;;8.95;6.05;;;32.30;45.80;;;;;;5097163;28;20020;-65
2021/07/20 10:21:11;;;;;;;8.70;6.28;;;31.90;46.60;;;;;;5097038;28;20157;-65
2021/07/20 10:23:48;;;;;;;10.90;6.40;;;31.80;47.50;;;;;;5092873;28;20491;-66
2021/07/20 10:26:19;;;;;;;10.52;6.30;;;31.70;46.70;;;;;;5096095;28;20039;-67
2021/07/20 10:28:47;;;;;;;10.40;7.03;;;31.50;47.20;;;;;;5097236;28;20642;-70
2021/07/20 10:31:20;;;;;;;9.65;6.18;;;31.40;46.80;;;;;;5079173;28;20035;-69
2021/07/20 10:33:54;;;;;;;11.13;6.60;;;31.30;46.40;;;;;;5093972;28;20027;-66
2021/07/20 10:36:24;;;;;;;8.77;6.00;;;31.20;45.90;;;;;;5093034;28;20016;-68
2021/07/20 10:38:54;;;;;;;9.27;6.37;;;31.00;46.10;;;;;;5093892;28;20020;-67
2021/07/20 10:41:25;;;;;;;11.40;6.63;;;30.90;47.20;;;;;;5091354;28;20251;-66
2021/07/20 10:44:04;;;;;;;12.87;6.70;;;30.50;46.20;;;;;;5076061;28;20028;-67
2021/07/20 10:46:32;;;;;;;10.50;6.35;;;30.20;46.30;;;;;;5092861;28;20361;-68
2021/07/20 10:49:09;;;;;;;9.90;6.65;;;29.80;47.30;;;;;;5093787;28;20024;-67
2021/07/20 10:51:42;;;;;;;9.90;6.55;;;29.60;47.50;;;;;;5075576;28;20116;-66
2021/07/20 10:54:28;;;;;;;14.90;6.32;;;29.30;47.00;;;;;;5093714;28;20032;-69
2021/07/20 10:56:59;;;;;;;10.13;6.38;;;29.00;47.50;;;;;;5092594;28;20024;-66
2021/07/20 10:59:32;;;;;;;13.95;6.28;;;28.80;48.10;;;;;;5075666;28;20069;-66
2021/07/20 11:02:30;;;;;;;11.50;6.63;;;28.80;48.00;;;;;;5093753;28;20048;-67
2021/07/20 11:05:08;;;;;;;10.02;6.20;;;28.70;48.40;;;;;;5092317;28;20019;-67
2021/07/20 11:07:58;;;;;;;10.77;5.65;;;28.80;48.40;;;;;;5093383;28;20023;-66
2021/07/20 11:12:59;;;;;;;10.13;5.95;;;28.60;47.90;;;;;;5063019;28;20053;-69
2021/07/20 11:15:27;;;;;;;12.68;6.10;;;28.20;48.00;;;;;;5079820;28;20020;-69
2021/07/20 11:17:56;;;;;;;9.55;6.30;;;28.10;49.00;;;;;;5087208;28;20431;-69
2021/07/20 11:20:22;;;;;;;9.35;5.82;;;28.10;48.60;;;;;;5055875;28;20048;-69
2021/07/20 11:22:49;;;;;;;9.43;5.75;;;28.10;48.60;;;;;;5053608;28;20044;-69
2021/07/20 11:25:17;;;;;;;8.55;5.97;;;28.10;48.70;;;;;;5050614;28;20081;-69
2021/07/20 11:27:44;;;;;;;14.80;6.60;;;28.10;48.60;;;;;;5072571;28;20031;-69
2021/07/20 11:30:17;;;;;;;7.65;5.38;;;28.10;48.50;;;;;;5072797;28;20024;-69
2021/07/20 11:32:57;;;;;;;12.18;6.10;;;28.10;48.60;;;;;;5072700;28;20033;-69
2021/07/20 11:35:24;;;;;;;11.20;6.18;;;28.10;47.20;;;;;;5071642;28;20016;-69
2021/07/20 11:37:58;;;;;;;12.13;6.38;;;28.00;48.50;;;;;;5072441;28;20024;-69
2021/07/20 11:40:26;;;;;;;11.43;6.22;;;28.00;49.30;;;;;;5072087;28;20021;-69
2021/07/20 11:42:59;;;;;;;11.63;6.30;;;28.00;47.70;;;;;;5072463;28;20029;-69
2021/07/20 11:45:32;;;;;;;8.82;5.90;;;27.80;48.00;;;;;;5071084;28;20396;-69
2021/07/20 11:48:11;;;;;;;10.38;6.60;;;27.80;48.40;;;;;;5072361;28;20431;-69
2021/07/20 11:50:57;;;;;;;14.85;6.90;;;27.80;49.40;;;;;;5068206;28;20021;-69
2021/07/20 11:53:32;;;;;;;9.93;6.85;;;27.90;49.00;;;;;;5061755;28;20025;-69
2021/07/20 11:56:05;;;;;;;10.80;6.28;;;28.00;48.60;;;;;;5070921;28;20052;-69
2021/07/20 11:59:14;;;;;;;10.65;6.15;;;28.00;48.60;;;;;;5072211;28;20105;-69
2021/07/20 12:01:51;;;;;;;12.15;6.13;;;28.00;48.40;;;;;;5072235;28;20028;-69
2021/07/20 12:04:49;;;;;;;11.02;5.93;;;28.10;48.90;;;;;;5072026;28;20516;-69
2021/07/20 12:07:27;;;;;;;10.20;5.93;;;28.20;49.00;;;;;;5071798;28;20024;-69
2021/07/20 12:10:06;;;;;;;9.27;5.88;;;28.30;49.40;;;;;;5071838;28;20135;-69
2021/07/20 12:12:58;;;;;;;11.20;6.13;;;28.40;47.90;;;;;;5071540;28;20123;-69
2021/07/20 12:15:26;;;;;;;9.10;6.40;;;28.00;47.10;;;;;;5070823;28;20025;-69
2021/07/20 12:17:53;;;;;;;10.13;5.60;;;27.60;47.20;;;;;;5071309;28;20096;-69
2021/07/20 12:20:21;;;;;;;9.93;6.13;;;27.40;48.20;;;;;;5054755;28;20017;-69
2021/07/20 12:22:49;;;;;;;8.77;5.80;;;27.40;48.80;;;;;;5052737;28;20512;-69
2021/07/20 12:25:16;;;;;;;13.60;6.53;;;27.50;48.30;;;;;;5067711;28;20388;-69
2021/07/20 12:27:45;;;;;;;13.13;6.10;;;27.60;47.50;;;;;;5071399;28;20024;-69
2021/07/20 12:30:16;;;;;;;13.05;7.07;;;27.50;47.30;;;;;;5071496;28;20024;-69
2021/07/20 12:32:42;;;;;;;11.50;6.10;;;27.30;48.90;;;;;;5071632;28;20055;-69
2021/07/20 12:35:11;;;;;;;18.55;6.78;;;27.20;48.00;;;;;;5070391;28;20251;-69
2021/07/20 12:37:39;;;;;;;10.23;6.18;;;27.20;47.80;;;;;;5071310;28;20017;-69
2021/07/20 12:40:06;;;;;;;8.85;5.72;;;27.00;47.30;;;;;;5053161;28;20116;-69
2021/07/20 12:42:33;;;;;;;9.80;5.95;;;26.80;47.00;;;;;;5071083;28;20025;-69
2021/07/20 12:45:19;;;;;;;10.55;6.55;;;26.60;47.50;;;;;;5070181;28;20042;-69
2021/07/20 12:47:49;;;;;;;10.07;5.65;;;26.70;48.40;;;;;;5071332;28;20060;-69
2021/07/20 12:50:20;;;;;;;19.48;11.35;;;26.80;48.00;;;;;;5071175;28;20020;-69
2021/07/20 12:52:47;;;;;;;;;;;26.90;48.50;;;;;;5071696;28;20082;-69
2021/07/20 12:55:19;;;;;;;7.53;5.50;;;27.00;49.20;;;;;;5069140;28;19904;-69
2021/07/20 12:57:55;;;;;;;10.02;5.82;;;27.00;48.60;;;;;;5070819;28;20067;-69
2021/07/20 13:00:28;;;;;;;8.85;5.25;;;27.10;48.60;;;;;;5053132;28;20040;-69
2021/07/20 13:02:58;;;;;;;8.02;5.35;;;27.20;49.10;;;;;;5071286;28;20095;-69